Time;durP1;ratioP1;P1;durP2;ratioP2;P2;SDS_P1;SDS_P2;PMS_P1;PMS_P2;Temp;Humidity;BMP_temperature;BMP_pressure;BME280_temperature;BME280_humidity;BME280_pressure;Samples;Min_cycle;Max_cycle;Signal;HPM_P1;HPM_P2
2021/01/11 00:02:17;;;;;;;31.90;16.65;;;-3.90;99.90;;;;;;5090368;28;20390;-67
2021/01/11 00:04:44;;;;;;;28.15;15.88;;;-3.90;99.90;;;;;;5090060;28;20505;-67
2021/01/11 00:07:11;;;;;;;30.52;17.00;;;-3.90;99.90;;;;;;5071156;28;20040;-68
2021/01/11 00:09:39;;;;;;;32.90;16.98;;;-3.90;99.90;;;;;;5090080;28;20069;-67
2021/01/11 00:12:08;;;;;;;28.48;16.45;;;-3.90;99.90;;;;;;5089605;28;20086;-67
2021/01/11 00:14:35;;;;;;;32.45;16.70;;;-3.90;99.90;;;;;;5071767;28;20190;-67
2021/01/11 00:17:03;;;;;;;32.30;16.25;;;-3.90;99.90;;;;;;5090462;28;20081;-66
2021/01/11 00:19:30;;;;;;;31.80;15.27;;;-3.90;99.90;;;;;;5089391;28;20052;-67
2021/01/11 00:21:57;;;;;;;31.65;15.23;;;-3.90;99.90;;;;;;5090161;28;20083;-66
2021/01/11 00:24:23;;;;;;;32.70;16.88;;;-4.00;99.90;;;;;;5090640;28;20040;-65
2021/01/11 00:26:55;;;;;;;34.25;17.00;;;-4.00;99.90;;;;;;5088878;28;20048;-66
2021/01/11 00:29:23;;;;;;;29.95;17.02;;;-4.10;99.90;;;;;;5089087;28;20058;-67
2021/01/11 00:31:50;;;;;;;30.95;15.93;;;-4.10;99.90;;;;;;5086482;28;20501;-64
2021/01/11 00:34:17;;;;;;;28.95;15.30;;;-4.10;99.90;;;;;;5079802;28;20148;-66
2021/01/11 00:36:48;;;;;;;31.92;16.73;;;-4.10;99.90;;;;;;5088905;28;20502;-66
2021/01/11 00:39:14;;;;;;;29.27;14.67;;;-4.00;99.90;;;;;;5090791;28;20048;-66
2021/01/11 00:41:41;;;;;;;32.08;15.77;;;-4.10;99.90;;;;;;5070936;28;20087;-65
2021/01/11 00:44:07;;;;;;;33.55;16.35;;;-4.10;99.90;;;;;;5087702;28;20059;-66
2021/01/11 00:46:34;;;;;;;29.00;15.50;;;-4.10;99.90;;;;;;5089756;28;20059;-65
2021/01/11 00:49:00;;;;;;;32.63;15.77;;;-4.20;99.90;;;;;;5090464;28;20084;-66
2021/01/11 00:51:27;;;;;;;32.03;16.02;;;-4.20;99.90;;;;;;5089679;28;20097;-66
2021/01/11 00:53:54;;;;;;;25.55;14.88;;;-4.20;99.90;;;;;;5072413;28;20421;-66
2021/01/11 00:56:20;;;;;;;26.38;14.63;;;-4.20;99.90;;;;;;5089390;28;20056;-65
2021/01/11 00:58:47;;;;;;;30.65;15.32;;;-4.20;99.90;;;;;;5089715;28;20052;-66
2021/01/11 01:01:14;;;;;;;31.02;17.13;;;-4.20;99.90;;;;;;5089250;28;20048;-66
2021/01/11 01:03:42;;;;;;;32.05;16.25;;;-4.30;99.90;;;;;;5089483;28;20448;-66
2021/01/11 01:06:11;;;;;;;28.15;15.65;;;-4.30;99.90;;;;;;5089438;28;20076;-66
2021/01/11 01:08:37;;;;;;;26.00;14.80;;;-4.30;99.90;;;;;;5090029;28;20052;-66
2021/01/11 01:11:04;;;;;;;32.28;15.82;;;-4.40;99.90;;;;;;5089734;28;20435;-66
2021/01/11 01:13:31;;;;;;;32.08;17.20;;;-4.40;99.90;;;;;;5089756;28;20078;-66
2021/01/11 01:15:57;;;;;;;35.17;17.58;;;-4.40;99.90;;;;;;5090109;28;20052;-64
2021/01/11 01:18:24;;;;;;;34.25;15.93;;;-4.40;99.90;;;;;;5088931;28;20079;-65
2021/01/11 01:20:51;;;;;;;33.15;17.98;;;-4.50;99.90;;;;;;5082152;28;20044;-65
2021/01/11 01:23:18;;;;;;;29.42;15.60;;;-4.50;99.90;;;;;;5092059;28;20047;-65
2021/01/11 01:25:44;;;;;;;28.95;15.32;;;-4.50;99.90;;;;;;5090572;28;20048;-65
2021/01/11 01:28:11;;;;;;;31.55;16.60;;;-4.60;99.90;;;;;;5093335;28;20054;-66
2021/01/11 01:30:37;;;;;;;33.00;17.08;;;-4.60;99.90;;;;;;5092403;28;20130;-65
2021/01/11 01:33:04;;;;;;;34.88;17.15;;;-4.60;99.90;;;;;;5092982;28;20052;-66
2021/01/11 01:35:31;;;;;;;31.83;14.90;;;-4.60;99.90;;;;;;5083956;28;20070;-68
2021/01/11 01:37:58;;;;;;;32.55;16.80;;;-4.70;99.90;;;;;;5081136;28;20102;-67
2021/01/11 01:40:25;;;;;;;34.92;16.25;;;-4.70;99.90;;;;;;5077643;28;20291;-67
2021/01/11 01:42:52;;;;;;;27.10;15.50;;;-4.70;99.90;;;;;;5084124;28;20055;-67
2021/01/11 01:45:19;;;;;;;31.65;17.02;;;-4.80;99.90;;;;;;5093191;28;20063;-67
2021/01/11 01:47:47;;;;;;;31.02;16.90;;;-4.80;99.90;;;;;;5082896;28;20048;-67
2021/01/11 01:50:14;;;;;;;31.23;16.70;;;-4.80;99.90;;;;;;5074925;28;20048;-67
2021/01/11 01:52:43;;;;;;;34.80;18.33;;;-4.80;99.90;;;;;;5093259;28;20056;-67
2021/01/11 01:55:11;;;;;;;32.53;16.75;;;-4.80;99.90;;;;;;5092794;28;20516;-68
2021/01/11 01:57:38;;;;;;;35.95;16.48;;;-4.80;99.90;;;;;;5091793;28;20044;-67
2021/01/11 02:00:05;;;;;;;29.95;16.30;;;-4.80;99.90;;;;;;5091005;28;20054;-67
2021/01/11 02:02:32;;;;;;;32.25;16.10;;;-4.80;99.90;;;;;;5090498;28;20047;-68
2021/01/11 02:04:58;;;;;;;34.75;17.33;;;-4.80;99.90;;;;;;5093441;28;20039;-67
2021/01/11 02:07:54;;;;;;;34.33;16.83;;;-4.80;99.90;;;;;;5074667;28;20052;-66
2021/01/11 02:11:32;;;;;;;31.42;15.85;;;-4.80;99.90;;;;;;5091159;28;20478;-67
2021/01/11 02:14:22;;;;;;;31.83;15.55;;;-4.80;99.90;;;;;;4927413;29;20125;-67
2021/01/11 02:17:16;;;;;;;33.03;15.95;;;-4.80;99.90;;;;;;4933056;29;20050;-68
2021/01/11 02:19:59;;;;;;;31.10;16.52;;;-4.80;99.90;;;;;;4932565;29;20054;-67
2021/01/11 02:22:31;;;;;;;31.33;16.00;;;-4.70;99.90;;;;;;4932374;29;20448;-67
2021/01/11 02:25:32;;;;;;;35.05;17.00;;;-4.70;99.90;;;;;;4929224;29;20071;-66
2021/01/11 02:28:00;;;;;;;31.08;15.00;;;-4.70;99.90;;;;;;4930007;29;20073;-66
2021/01/11 02:30:33;;;;;;;32.15;15.73;;;-4.80;99.90;;;;;;4932378;29;20062;-66
2021/01/11 02:33:04;;;;;;;33.50;16.65;;;-4.80;99.90;;;;;;4930467;29;20432;-66
2021/01/11 02:35:52;;;;;;;27.40;15.63;;;-4.90;99.90;;;;;;4931840;29;20469;-66
2021/01/11 02:38:21;;;;;;;30.00;15.93;;;-4.90;99.90;;;;;;4924542;29;20055;-66
2021/01/11 02:40:49;;;;;;;29.55;15.52;;;-5.00;99.90;;;;;;4928899;29;20522;-67
2021/01/11 02:43:16;;;;;;;28.65;15.07;;;-4.90;99.90;;;;;;4929551;29;20052;-67
2021/01/11 02:45:43;;;;;;;32.90;16.08;;;-4.90;99.90;;;;;;4931917;29;20043;-67
2021/01/11 02:48:20;;;;;;;31.75;16.30;;;-4.90;99.90;;;;;;5036254;28;20503;-68
2021/01/11 02:51:05;;;;;;;30.85;16.25;;;-4.90;99.90;;;;;;5090698;28;20066;-67
2021/01/11 02:54:09;;;;;;;26.63;14.43;;;-4.90;99.90;;;;;;5091514;28;20048;-66
2021/01/11 02:56:55;;;;;;;29.45;15.18;;;-4.90;99.90;;;;;;5080388;28;20056;-67
2021/01/11 02:59:31;;;;;;;30.30;15.15;;;-4.90;99.90;;;;;;5073578;28;20050;-67
2021/01/11 03:02:07;;;;;;;30.80;15.40;;;-4.90;99.90;;;;;;5082629;28;20063;-67
2021/01/11 03:04:36;;;;;;;28.02;14.80;;;-4.90;99.90;;;;;;5091195;28;20054;-67
2021/01/11 03:07:09;;;;;;;30.15;16.00;;;-4.90;99.90;;;;;;5082896;28;20082;-65
2021/01/11 03:09:43;;;;;;;36.17;15.50;;;-4.90;99.90;;;;;;5090789;28;20056;-66
2021/01/11 03:12:11;;;;;;;30.33;15.25;;;-4.90;99.90;;;;;;5090940;28;20048;-66
2021/01/11 03:14:38;;;;;;;31.05;15.40;;;-4.90;99.90;;;;;;5091181;28;20084;-66
2021/01/11 03:17:04;;;;;;;27.27;14.80;;;-4.90;99.90;;;;;;5073398;28;20048;-66
2021/01/11 03:19:31;;;;;;;33.40;16.10;;;-5.00;99.90;;;;;;5088070;28;20075;-66
2021/01/11 03:21:58;;;;;;;27.05;14.93;;;-5.00;99.90;;;;;;5078615;28;20124;-66
2021/01/11 03:24:25;;;;;;;31.45;16.38;;;-5.00;99.90;;;;;;5090156;28;20044;-66
2021/01/11 03:26:59;;;;;;;29.65;16.10;;;-5.00;99.90;;;;;;5091234;28;20378;-66
2021/01/11 03:29:27;;;;;;;33.47;17.33;;;-5.10;99.90;;;;;;5091815;28;20143;-66
2021/01/11 03:31:53;;;;;;;37.70;20.40;;;-5.10;99.90;;;;;;5090713;28;20447;-66
2021/01/11 03:34:20;;;;;;;45.03;21.65;;;-5.20;99.90;;;;;;5091815;28;20055;-66
2021/01/11 03:36:47;;;;;;;42.65;21.23;;;-5.20;99.90;;;;;;5089792;28;20048;-66
2021/01/11 03:39:13;;;;;;;45.05;22.58;;;-5.20;99.90;;;;;;5091315;28;20054;-66
2021/01/11 03:41:41;;;;;;;37.33;19.73;;;-5.20;99.90;;;;;;5089326;28;20048;-67
2021/01/11 03:44:09;;;;;;;36.65;18.08;;;-5.20;99.90;;;;;;5088879;28;20040;-66
2021/01/11 03:46:36;;;;;;;34.05;16.63;;;-5.30;99.90;;;;;;5088368;28;20036;-66
2021/01/11 03:49:04;;;;;;;39.13;19.02;;;-5.20;99.90;;;;;;5088569;28;20131;-66
2021/01/11 03:51:31;;;;;;;36.03;18.13;;;-5.20;99.90;;;;;;5071939;28;20055;-67
2021/01/11 03:53:57;;;;;;;38.83;20.33;;;-5.20;99.90;;;;;;5089741;28;20079;-66
2021/01/11 03:56:24;;;;;;;39.45;19.23;;;-5.20;99.90;;;;;;5090810;28;20059;-66
2021/01/11 03:58:50;;;;;;;39.63;19.40;;;-5.10;99.90;;;;;;5091159;28;20500;-66
2021/01/11 04:01:17;;;;;;;47.17;20.38;;;-5.00;99.90;;;;;;5090364;28;20054;-66
2021/01/11 04:03:43;;;;;;;40.20;19.30;;;-4.90;99.90;;;;;;5089589;28;20066;-66
2021/01/11 04:06:10;;;;;;;49.63;22.42;;;-4.80;99.90;;;;;;5090033;28;20144;-66
2021/01/11 04:08:37;;;;;;;48.15;23.38;;;-4.70;99.90;;;;;;5090972;28;20131;-67
2021/01/11 04:11:03;;;;;;;53.80;23.65;;;-4.70;99.90;;;;;;5087391;28;21015;-66
2021/01/11 04:13:29;;;;;;;51.45;22.25;;;-4.70;99.90;;;;;;5077060;28;20047;-66
2021/01/11 04:15:57;;;;;;;51.53;23.15;;;-4.60;99.90;;;;;;5089369;28;20052;-68
2021/01/11 04:18:24;;;;;;;47.63;22.90;;;-4.60;99.90;;;;;;5090154;28;20047;-66
2021/01/11 04:20:51;;;;;;;43.70;21.25;;;-4.50;99.90;;;;;;5090432;28;20047;-66
2021/01/11 04:23:18;;;;;;;51.00;23.63;;;-4.50;99.90;;;;;;5090370;28;20094;-67
2021/01/11 04:25:44;;;;;;;42.50;21.17;;;-4.50;99.90;;;;;;5088124;28;20066;-66
2021/01/11 04:28:11;;;;;;;46.22;22.58;;;-4.50;99.90;;;;;;5090716;28;20078;-66
2021/01/11 04:30:37;;;;;;;48.50;24.20;;;-4.40;99.90;;;;;;5087229;28;20055;-66
2021/01/11 04:33:04;;;;;;;46.85;23.65;;;-4.40;99.90;;;;;;5090231;28;20052;-66
2021/01/11 04:35:30;;;;;;;48.05;23.23;;;-4.30;99.90;;;;;;5087760;28;20055;-67
2021/01/11 04:37:57;;;;;;;44.97;21.88;;;-4.30;99.90;;;;;;5089766;28;20101;-66
2021/01/11 04:40:24;;;;;;;46.38;22.65;;;-4.20;99.90;;;;;;5088320;28;20135;-67
2021/01/11 04:43:04;;;;;;;41.20;22.08;;;-4.20;99.90;;;;;;5089510;28;20395;-66
2021/01/11 04:45:31;;;;;;;40.92;23.20;;;-4.20;99.90;;;;;;5090236;28;20442;-66
2021/01/11 04:47:59;;;;;;;41.67;21.60;;;-4.10;99.90;;;;;;5089018;28;20413;-66
2021/01/11 04:50:27;;;;;;;45.80;22.00;;;-4.10;99.90;;;;;;5090001;28;20479;-66
2021/01/11 04:52:54;;;;;;;55.42;25.58;;;-4.20;99.90;;;;;;5084590;28;20063;-66
2021/01/11 04:55:21;;;;;;;47.58;21.75;;;-4.20;99.90;;;;;;5090226;28;20052;-67
2021/01/11 04:57:53;;;;;;;49.97;23.30;;;-4.20;99.90;;;;;;5091669;28;20071;-66
2021/01/11 05:00:23;;;;;;;53.80;23.67;;;-4.20;99.90;;;;;;5083944;28;20044;-66
2021/01/11 05:02:58;;;;;;;46.80;23.17;;;-4.20;99.90;;;;;;5107415;28;20044;-66
2021/01/11 05:05:27;;;;;;;44.40;23.85;;;-4.20;99.90;;;;;;5093501;28;20403;-66
2021/01/11 05:07:54;;;;;;;49.50;23.85;;;-4.20;99.90;;;;;;5093937;28;20140;-66
2021/01/11 05:10:23;;;;;;;49.63;25.35;;;-4.10;99.90;;;;;;5092851;28;20052;-66
2021/01/11 05:13:04;;;;;;;46.72;24.23;;;-4.00;99.90;;;;;;5093869;28;20050;-65
2021/01/11 05:15:33;;;;;;;46.97;23.75;;;-4.00;99.90;;;;;;5086718;28;20391;-66
2021/01/11 05:18:00;;;;;;;48.88;24.15;;;-3.90;99.90;;;;;;5090067;28;20090;-66
2021/01/11 05:20:34;;;;;;;44.60;23.83;;;-3.90;99.90;;;;;;5092610;28;20044;-66
2021/01/11 05:23:09;;;;;;;44.58;24.15;;;-4.00;99.90;;;;;;5075772;28;20316;-66
2021/01/11 05:25:37;;;;;;;46.42;22.73;;;-4.00;99.90;;;;;;5092339;28;20044;-66
2021/01/11 05:28:16;;;;;;;41.45;23.08;;;-4.00;99.90;;;;;;5093903;28;20048;-66
2021/01/11 05:30:47;;;;;;;42.10;21.40;;;-4.00;99.90;;;;;;5088373;28;20115;-66
2021/01/11 05:33:22;;;;;;;45.85;23.90;;;-3.90;99.90;;;;;;5092692;28;20074;-66
2021/01/11 05:36:01;;;;;;;43.88;23.67;;;-4.00;99.90;;;;;;5091245;28;20433;-66
2021/01/11 05:38:47;;;;;;;43.65;23.30;;;-4.00;99.90;;;;;;5084655;28;20037;-66
2021/01/11 05:41:16;;;;;;;42.90;22.70;;;-4.00;99.90;;;;;;5074519;28;20044;-66
2021/01/11 05:43:45;;;;;;;43.00;22.90;;;-4.00;99.90;;;;;;5093329;28;20052;-66
2021/01/11 05:46:28;;;;;;;47.13;23.33;;;-4.00;99.90;;;;;;5091511;28;20126;-66
2021/01/11 05:49:02;;;;;;;40.33;21.45;;;-4.10;99.90;;;;;;5093104;28;20058;-66
2021/01/11 05:51:30;;;;;;;42.28;21.05;;;-4.10;99.90;;;;;;5092667;28;20130;-66
2021/01/11 05:53:57;;;;;;;42.00;23.13;;;-4.10;99.90;;;;;;5094069;28;20055;-66
2021/01/11 05:56:25;;;;;;;48.50;24.00;;;-4.10;99.90;;;;;;5091592;28;20044;-66
2021/01/11 05:59:08;;;;;;;48.20;24.23;;;-4.20;99.90;;;;;;5093543;28;20486;-66
2021/01/11 06:01:36;;;;;;;45.28;25.10;;;-4.20;99.90;;;;;;5071343;28;20051;-65
2021/01/11 06:04:04;;;;;;;40.40;22.50;;;-4.20;99.90;;;;;;5075383;28;20036;-66
2021/01/11 06:06:31;;;;;;;37.63;21.13;;;-4.30;99.90;;;;;;5092735;28;20036;-65
2021/01/11 06:08:58;;;;;;;43.13;23.00;;;-4.40;99.90;;;;;;5092690;28;20059;-65
2021/01/11 06:11:26;;;;;;;41.47;21.40;;;-4.50;99.90;;;;;;5092742;28;20043;-65
2021/01/11 06:13:58;;;;;;;36.92;21.08;;;-4.60;99.90;;;;;;5068623;28;20163;-65
2021/01/11 06:16:26;;;;;;;39.10;20.67;;;-4.70;99.90;;;;;;5083847;28;20090;-66
2021/01/11 06:18:53;;;;;;;45.13;22.25;;;-4.80;99.90;;;;;;5081592;28;20044;-65
2021/01/11 06:21:21;;;;;;;42.65;22.73;;;-4.80;99.90;;;;;;5092354;28;20509;-65
2021/01/11 06:24:08;;;;;;;43.22;21.52;;;-4.90;99.90;;;;;;5092321;28;20052;-66
2021/01/11 06:26:35;;;;;;;43.35;21.77;;;-4.90;99.90;;;;;;5088779;28;20050;-65
2021/01/11 06:29:27;;;;;;;45.33;21.63;;;-4.90;99.90;;;;;;5090051;28;20048;-65
2021/01/11 06:31:56;;;;;;;42.85;20.98;;;-4.90;99.90;;;;;;5091654;28;20044;-66
2021/01/11 06:34:33;;;;;;;42.17;20.75;;;-4.90;99.90;;;;;;5087711;28;20052;-66
2021/01/11 06:37:01;;;;;;;49.10;22.92;;;-5.00;99.90;;;;;;5091943;28;20064;-65
2021/01/11 06:39:31;;;;;;;38.65;20.55;;;-4.90;99.90;;;;;;5092434;28;20048;-65
2021/01/11 06:42:09;;;;;;;41.65;20.77;;;-4.90;99.90;;;;;;5089092;28;20048;-65
2021/01/11 06:44:38;;;;;;;36.83;20.55;;;-4.90;99.90;;;;;;5074890;28;20410;-65
2021/01/11 06:47:06;;;;;;;40.95;19.20;;;-4.80;99.90;;;;;;5077315;28;20447;-65
2021/01/11 06:49:34;;;;;;;39.33;18.77;;;-4.90;99.90;;;;;;5078483;28;20051;-65
2021/01/11 06:52:06;;;;;;;39.85;18.42;;;-4.80;99.90;;;;;;5072977;28;20477;-66
2021/01/11 06:54:41;;;;;;;43.53;20.13;;;-4.80;99.90;;;;;;5079650;28;20076;-65
2021/01/11 06:57:19;;;;;;;45.22;20.65;;;-4.80;99.90;;;;;;5085444;28;20555;-64
2021/01/11 06:59:50;;;;;;;40.72;20.70;;;-4.80;99.90;;;;;;5089378;28;20044;-64
2021/01/11 07:02:22;;;;;;;42.95;21.05;;;-4.70;99.90;;;;;;5093005;28;20052;-66
2021/01/11 07:04:49;;;;;;;42.80;22.38;;;-4.80;99.90;;;;;;5092286;28;20040;-64
2021/01/11 07:07:20;;;;;;;47.72;22.02;;;-4.70;99.90;;;;;;5091198;28;20056;-64
2021/01/11 07:09:50;;;;;;;47.10;23.05;;;-4.70;99.90;;;;;;5080927;28;20520;-66
2021/01/11 07:12:20;;;;;;;50.50;22.77;;;-4.60;99.90;;;;;;5092113;28;20056;-66
2021/01/11 07:15:01;;;;;;;50.38;24.13;;;-4.60;99.90;;;;;;5088773;28;20148;-66
2021/01/11 07:17:42;;;;;;;53.42;25.63;;;-4.50;99.90;;;;;;5092024;28;20478;-66
2021/01/11 07:20:11;;;;;;;58.33;24.70;;;-4.40;99.90;;;;;;5088222;28;20506;-66
2021/01/11 07:22:39;;;;;;;57.35;25.30;;;-4.40;99.90;;;;;;5091398;28;20065;-66
2021/01/11 07:25:15;;;;;;;54.00;24.92;;;-4.30;99.90;;;;;;5072218;28;20056;-67
2021/01/11 07:27:42;;;;;;;60.97;25.98;;;-4.30;99.90;;;;;;5079570;28;20397;-65
2021/01/11 07:30:09;;;;;;;57.47;25.95;;;-4.30;99.90;;;;;;5081790;28;20508;-66
2021/01/11 07:32:36;;;;;;;57.40;25.38;;;-4.30;99.90;;;;;;5091273;28;20051;-65
2021/01/11 07:35:03;;;;;;;57.75;26.00;;;-4.20;99.90;;;;;;5090382;28;20048;-65
2021/01/11 07:37:30;;;;;;;58.70;26.60;;;-4.10;99.90;;;;;;5087473;28;20056;-67
2021/01/11 07:40:06;;;;;;;57.97;26.58;;;-4.10;99.90;;;;;;5088567;28;20123;-67
2021/01/11 07:42:32;;;;;;;54.58;24.05;;;-4.00;99.90;;;;;;5075562;28;20043;-66
2021/01/11 07:45:08;;;;;;;51.10;23.83;;;-4.00;99.90;;;;;;5085399;28;20057;-66
2021/01/11 07:47:36;;;;;;;47.67;23.15;;;-4.00;99.90;;;;;;5088954;28;20062;-66
2021/01/11 07:50:03;;;;;;;52.40;24.15;;;-4.00;99.90;;;;;;5081218;28;20473;-65
2021/01/11 07:52:30;;;;;;;54.03;23.05;;;-4.10;99.90;;;;;;5077140;28;20044;-66
2021/01/11 07:55:04;;;;;;;47.38;22.30;;;-4.00;99.90;;;;;;5073720;28;20056;-65
2021/01/11 07:57:32;;;;;;;44.95;20.55;;;-4.00;99.90;;;;;;5058148;28;20070;-65
2021/01/11 07:59:59;;;;;;;49.53;24.23;;;-3.90;99.90;;;;;;5090658;28;20055;-65
2021/01/11 08:02:26;;;;;;;44.33;22.35;;;-3.90;99.90;;;;;;5090356;28;20066;-67
2021/01/11 08:04:53;;;;;;;41.80;20.77;;;-3.80;99.90;;;;;;5089801;28;20126;-64
2021/01/11 08:07:26;;;;;;;42.63;22.02;;;-3.70;99.90;;;;;;5090663;28;20394;-65
2021/01/11 08:09:56;;;;;;;41.08;21.48;;;-3.80;99.90;;;;;;5079206;28;20112;-66
2021/01/11 08:12:24;;;;;;;41.08;21.70;;;-3.80;99.90;;;;;;5090408;28;20502;-67
2021/01/11 08:14:51;;;;;;;44.22;21.88;;;-3.80;99.90;;;;;;5089688;28;20725;-67
2021/01/11 08:17:19;;;;;;;40.70;20.33;;;-3.80;99.90;;;;;;5090865;28;20054;-67
2021/01/11 08:19:49;;;;;;;40.58;20.90;;;-3.80;99.90;;;;;;5069997;28;20059;-67
2021/01/11 08:22:18;;;;;;;46.88;22.20;;;-3.70;99.90;;;;;;5090158;28;20058;-66
2021/01/11 08:24:48;;;;;;;44.90;23.35;;;-3.70;99.90;;;;;;5090604;28;20040;-66
2021/01/11 08:27:19;;;;;;;46.03;23.08;;;-3.70;99.90;;;;;;5089543;28;20767;-64
2021/01/11 08:29:46;;;;;;;42.40;21.08;;;-3.60;99.90;;;;;;5090139;28;20052;-65
2021/01/11 08:32:16;;;;;;;42.58;21.42;;;-3.50;99.90;;;;;;5077387;28;20059;-66
2021/01/11 08:34:43;;;;;;;41.15;21.35;;;-3.50;99.90;;;;;;5090214;28;20059;-66
2021/01/11 08:37:30;;;;;;;45.53;21.35;;;-3.50;99.90;;;;;;5090307;28;20063;-65
2021/01/11 08:39:58;;;;;;;48.65;22.50;;;-3.40;99.90;;;;;;5080403;28;20052;-65
2021/01/11 08:42:29;;;;;;;43.08;21.50;;;-3.40;99.90;;;;;;5090205;28;20407;-65
2021/01/11 08:45:15;;;;;;;40.63;21.10;;;-3.40;99.90;;;;;;5089442;28;20128;-65
2021/01/11 08:47:42;;;;;;;45.33;22.10;;;-3.30;99.90;;;;;;5071606;28;20044;-65
2021/01/11 08:50:09;;;;;;;42.28;22.08;;;-3.30;99.90;;;;;;5091207;28;20048;-65
2021/01/11 08:52:36;;;;;;;40.80;19.85;;;-3.30;99.90;;;;;;5089431;28;20059;-66
2021/01/11 08:55:10;;;;;;;37.47;20.70;;;-3.20;99.90;;;;;;5090706;28;20560;-65
2021/01/11 08:57:37;;;;;;;44.90;22.95;;;-3.10;99.90;;;;;;5087190;28;20051;-65
2021/01/11 09:00:11;;;;;;;42.72;21.60;;;-3.00;99.90;;;;;;5089739;28;20378;-66
2021/01/11 09:02:47;;;;;;;40.90;22.05;;;-3.00;99.90;;;;;;5086807;28;20467;-65
2021/01/11 09:05:22;;;;;;;47.63;24.30;;;-3.00;99.90;;;;;;5089335;28;20059;-65
2021/01/11 09:07:53;;;;;;;43.35;22.25;;;-3.00;99.90;;;;;;5089569;28;20581;-66
2021/01/11 09:10:34;;;;;;;50.10;24.83;;;-3.00;99.90;;;;;;5090941;28;20445;-65
2021/01/11 09:13:17;;;;;;;38.22;20.38;;;-2.90;99.90;;;;;;5089636;28;20044;-66
2021/01/11 09:15:45;;;;;;;40.03;20.25;;;-2.80;99.90;;;;;;5081518;28;20582;-67
2021/01/11 09:18:13;;;;;;;40.90;20.15;;;-2.80;99.90;;;;;;5089911;28;20560;-65
2021/01/11 09:20:45;;;;;;;41.65;20.70;;;-2.70;99.90;;;;;;5089610;28;20039;-66
2021/01/11 09:23:14;;;;;;;42.25;21.05;;;-2.60;99.90;;;;;;5088428;28;20050;-64
2021/01/11 09:25:40;;;;;;;41.33;20.52;;;-2.50;99.90;;;;;;5084149;28;20050;-64
2021/01/11 09:28:08;;;;;;;42.53;21.95;;;-2.40;99.90;;;;;;5084827;28;20063;-64
2021/01/11 09:30:36;;;;;;;39.70;21.15;;;-2.30;99.90;;;;;;5088773;28;20079;-65
2021/01/11 09:33:05;;;;;;;40.42;21.60;;;-2.10;99.90;;;;;;5069996;28;20135;-64
2021/01/11 09:35:31;;;;;;;37.95;19.30;;;-2.00;99.90;;;;;;5089494;28;20409;-64
2021/01/11 09:37:58;;;;;;;39.97;21.30;;;-1.90;99.90;;;;;;5087009;28;20040;-65
2021/01/11 09:40:24;;;;;;;39.15;21.33;;;-1.90;99.90;;;;;;5084655;28;20470;-66
2021/01/11 09:42:51;;;;;;;37.90;19.67;;;-1.90;99.90;;;;;;5069233;28;21568;-66
2021/01/11 09:45:19;;;;;;;34.00;19.77;;;-1.90;99.90;;;;;;5069904;28;20055;-66
2021/01/11 09:47:45;;;;;;;37.45;19.88;;;-1.80;99.90;;;;;;5090903;28;20044;-66
2021/01/11 09:50:13;;;;;;;40.28;21.08;;;-1.70;99.90;;;;;;5088273;28;20049;-66
2021/01/11 09:52:39;;;;;;;41.92;22.25;;;-1.80;99.90;;;;;;5092209;28;20062;-65
2021/01/11 09:55:07;;;;;;;42.88;21.58;;;-1.90;99.90;;;;;;5092941;28;20044;-65
2021/01/11 09:57:36;;;;;;;41.70;20.98;;;-2.00;99.90;;;;;;5089317;28;20051;-66
2021/01/11 10:00:15;;;;;;;42.65;20.83;;;-2.00;99.90;;;;;;5089401;28;20048;-66
2021/01/11 10:02:48;;;;;;;39.47;20.52;;;-2.00;99.90;;;;;;5078189;28;20513;-66
2021/01/11 10:05:17;;;;;;;41.15;20.67;;;-2.00;99.90;;;;;;5077604;28;20417;-65
2021/01/11 10:07:44;;;;;;;39.88;21.52;;;-1.80;99.90;;;;;;5085993;28;20048;-65
2021/01/11 10:10:12;;;;;;;44.55;23.60;;;-1.80;99.90;;;;;;5077977;28;20066;-65
2021/01/11 10:12:39;;;;;;;49.13;24.42;;;-1.90;99.90;;;;;;5079883;28;20049;-66
2021/01/11 10:15:06;;;;;;;43.47;23.15;;;-1.90;99.90;;;;;;5083225;28;20055;-65
2021/01/11 10:17:33;;;;;;;48.53;23.88;;;-1.90;99.90;;;;;;5083793;28;20055;-66
2021/01/11 10:20:00;;;;;;;47.67;24.65;;;-1.90;99.90;;;;;;5091576;28;20044;-65
2021/01/11 10:22:28;;;;;;;47.40;23.23;;;-1.80;99.90;;;;;;5091741;28;20040;-65
2021/01/11 10:24:55;;;;;;;52.47;25.67;;;-1.70;99.90;;;;;;5092541;28;20152;-66
2021/01/11 10:27:21;;;;;;;47.97;25.02;;;-1.60;99.90;;;;;;5091784;28;20407;-66
2021/01/11 10:29:48;;;;;;;50.25;25.63;;;-1.40;99.90;;;;;;5092189;28;20410;-65
2021/01/11 10:32:14;;;;;;;46.55;24.45;;;-1.20;99.90;;;;;;5080304;28;20044;-65
2021/01/11 10:34:41;;;;;;;52.00;25.77;;;-1.00;99.90;;;;;;5091239;28;20401;-66
2021/01/11 10:37:07;;;;;;;46.35;23.92;;;-0.80;99.90;;;;;;5090551;28;20096;-66
2021/01/11 10:39:34;;;;;;;49.67;24.42;;;-0.50;99.90;;;;;;5088596;28;20067;-65
2021/01/11 10:42:00;;;;;;;50.40;24.35;;;-0.30;99.90;;;;;;5088946;28;20504;-64
2021/01/11 10:44:27;;;;;;;46.05;24.10;;;-0.20;99.90;;;;;;5088851;28;20743;-66
2021/01/11 10:46:58;;;;;;;44.85;23.15;;;0.00;99.90;;;;;;5080327;28;20109;-65
2021/01/11 10:49:26;;;;;;;46.53;25.83;;;0.60;99.90;;;;;;5086374;28;20052;-64
2021/01/11 10:51:55;;;;;;;49.70;26.95;;;1.10;99.90;;;;;;5083471;28;20062;-65
2021/01/11 10:54:23;;;;;;;49.70;26.48;;;2.00;99.90;;;;;;5082029;28;20050;-65
2021/01/11 10:56:51;;;;;;;45.63;26.38;;;2.30;99.90;;;;;;5067379;28;20083;-66
2021/01/11 10:59:19;;;;;;;42.00;24.48;;;2.20;99.90;;;;;;5080401;28;20050;-66
2021/01/11 11:01:48;;;;;;;47.28;26.02;;;1.90;99.90;;;;;;5081247;28;20051;-66
2021/01/11 11:04:15;;;;;;;42.63;24.33;;;1.50;99.90;;;;;;5089184;28;20063;-66
2021/01/11 11:06:41;;;;;;;38.83;23.65;;;1.10;99.90;;;;;;5091733;28;20040;-66
2021/01/11 11:09:08;;;;;;;43.67;24.13;;;0.70;99.90;;;;;;5087541;28;20078;-66
2021/01/11 11:11:34;;;;;;;46.28;23.73;;;1.10;99.90;;;;;;5072139;28;20048;-65
2021/01/11 11:14:01;;;;;;;40.78;22.85;;;1.50;99.90;;;;;;5087870;28;20052;-67
2021/01/11 11:16:27;;;;;;;39.10;22.85;;;1.70;99.90;;;;;;5090975;28;20478;-65
2021/01/11 11:18:54;;;;;;;42.95;23.60;;;1.70;99.90;;;;;;5078026;28;20123;-65
2021/01/11 11:21:21;;;;;;;38.05;21.30;;;1.80;99.90;;;;;;5078275;28;20409;-65
2021/01/11 11:23:48;;;;;;;41.83;20.83;;;2.30;99.90;;;;;;5073004;28;20051;-65
2021/01/11 11:26:20;;;;;;;40.88;21.17;;;3.00;99.90;;;;;;5080989;28;20056;-67
2021/01/11 11:28:47;;;;;;;36.45;21.30;;;3.00;99.90;;;;;;5083878;28;20122;-66
2021/01/11 11:31:15;;;;;;;37.72;22.80;;;2.40;99.90;;;;;;5089642;28;20397;-65
2021/01/11 11:34:02;;;;;;;43.60;23.08;;;2.10;99.90;;;;;;5090108;28;20450;-65
2021/01/11 11:36:28;;;;;;;39.17;22.23;;;1.90;99.90;;;;;;5089826;28;20047;-67
2021/01/11 11:38:55;;;;;;;36.58;22.45;;;1.60;99.90;;;;;;5069564;28;20075;-66
2021/01/11 11:41:21;;;;;;;40.30;23.00;;;1.80;99.90;;;;;;5090695;28;20046;-66
2021/01/11 11:43:48;;;;;;;40.90;22.67;;;1.70;99.90;;;;;;5085888;28;20044;-66
2021/01/11 11:46:14;;;;;;;36.55;21.25;;;1.60;99.90;;;;;;5086490;28;20131;-67
2021/01/11 11:48:40;;;;;;;38.25;21.98;;;1.80;99.90;;;;;;5083596;28;20048;-66
2021/01/11 11:51:07;;;;;;;37.00;21.42;;;1.90;99.90;;;;;;5076697;28;20056;-66
2021/01/11 11:53:34;;;;;;;39.15;22.88;;;1.80;99.90;;;;;;5083653;28;20410;-68
2021/01/11 11:56:00;;;;;;;37.10;20.75;;;1.60;99.90;;;;;;5088281;28;20063;-68
2021/01/11 11:58:27;;;;;;;40.50;22.25;;;1.60;99.90;;;;;;5089723;28;20055;-68
2021/01/11 12:00:53;;;;;;;36.22;20.90;;;1.50;99.90;;;;;;5086775;28;20363;-67
2021/01/11 12:03:20;;;;;;;40.90;22.08;;;1.40;99.90;;;;;;5090177;28;20056;-67
2021/01/11 12:05:46;;;;;;;39.60;22.08;;;1.60;99.90;;;;;;5072803;28;20043;-67
2021/01/11 12:08:13;;;;;;;37.47;21.58;;;1.80;99.90;;;;;;5089813;28;20048;-67
2021/01/11 12:10:40;;;;;;;39.97;21.33;;;2.60;99.90;;;;;;5091465;28;20089;-67
2021/01/11 12:13:06;;;;;;;37.42;21.35;;;3.40;99.90;;;;;;5089952;28;20170;-67
2021/01/11 12:15:36;;;;;;;42.00;23.67;;;4.40;99.90;;;;;;5090269;28;20048;-67
2021/01/11 12:18:03;;;;;;;40.30;22.95;;;4.60;99.90;;;;;;5087784;28;20130;-67
2021/01/11 12:20:30;;;;;;;37.78;22.17;;;4.40;99.90;;;;;;5089879;28;20059;-67
2021/01/11 12:22:56;;;;;;;38.45;22.02;;;4.10;99.90;;;;;;5086255;28;20036;-67
2021/01/11 12:25:23;;;;;;;38.03;22.25;;;3.40;99.90;;;;;;5087547;28;20052;-66
2021/01/11 12:27:51;;;;;;;39.47;23.25;;;2.80;99.90;;;;;;5072498;28;20447;-66
2021/01/11 12:30:18;;;;;;;41.08;21.73;;;2.50;99.90;;;;;;5087983;28;20058;-66
2021/01/11 12:32:46;;;;;;;39.08;21.27;;;2.00;99.90;;;;;;5087590;28;20118;-67
2021/01/11 12:35:16;;;;;;;39.95;22.10;;;1.90;99.90;;;;;;5090696;28;20055;-67
2021/01/11 12:37:43;;;;;;;43.67;22.73;;;1.60;99.90;;;;;;5091221;28;20054;-65
2021/01/11 12:40:10;;;;;;;40.63;21.58;;;1.70;99.90;;;;;;5090800;28;20056;-65
2021/01/11 12:42:37;;;;;;;39.50;21.00;;;2.10;99.90;;;;;;5069651;28;20046;-65